KSAC

Sacramento Executive Airport

Sacramento, California, USA
METAR KSAC 162153Z 15005KT 7SM -RA OVC095 13/09 A3001 RMK AO2 RAB00 SLP162 P0000 T01330094
Observed Flight Rules
Dec-16 @ 21:53 UTC (23 minutes ago) Visual Flight Rules
Wind Visibility Clouds Conditions
150° at 5 knots 7 miles
  • Overcast at 9,500' AGL
  • Light Rain
Temperatures Readings Precipitation
Current 13°C / 55°F
Dewpoint 9°C / 48°F
Humidity 77%
Altimeter 30.01" Hg
Pressure 1016.2 hPa
Elevation 11
Current Rain 0.005
METAR KSAC 162153Z 15005KT 7SM -RA OVC095 13/09 A3001 RMK AO2 RAB00 SLP162 P0000 T01330094
Observed Flight Rules
Dec-16 @ 21:53 UTC
(23 minutes ago)
VFR
Wind Visibility
150° at 5 knots 7 miles
Clouds
  • Overcast at 9,500' AGL
Conditions
  • Light Rain
Temperature Dewpoint
13°C / 55°F 9°C / 48°F
Humidity Altimeter Pressure
77% 30.01" Hg 1016.2 hPa
Current Rain
0.005